Time;durP1;ratioP1;P1;durP2;ratioP2;P2;SDS_P1;SDS_P2;PMS_P1;PMS_P2;Temp;Humidity;BMP_temperature;BMP_pressure;BME280_temperature;BME280_humidity;BME280_pressure;Samples;Min_cycle;Max_cycle;Signal;HPM_P1;HPM_P2
2021/09/02 00:01:45;;;;;;;21.73;11.93;;;15.80;98.30;;;;;;4080944;29;20470;-81
2021/09/02 00:03:49;;;;;;;16.33;11.13;;;15.80;98.30;;;;;;4072525;29;20509;-82
2021/09/02 00:05:52;;;;;;;16.43;11.40;;;15.90;98.30;;;;;;4077652;29;20505;-82
2021/09/02 00:07:55;;;;;;;22.90;12.83;;;15.80;98.30;;;;;;4080085;29;20481;-82
2021/09/02 00:09:58;;;;;;;23.73;13.70;;;15.80;98.30;;;;;;4078726;29;20482;-82
2021/09/02 00:12:02;;;;;;;26.50;14.20;;;15.80;98.30;;;;;;4076125;29;20471;-82
2021/09/02 00:14:05;;;;;;;23.00;12.67;;;15.70;98.30;;;;;;4078145;29;20482;-82
2021/09/02 00:16:08;;;;;;;21.93;13.10;;;15.80;98.30;;;;;;4078461;29;20495;-83
2021/09/02 00:18:11;;;;;;;20.20;13.30;;;15.90;98.30;;;;;;4071932;29;20467;-82
2021/09/02 00:20:15;;;;;;;21.30;13.27;;;15.90;98.30;;;;;;4075462;29;20482;-82
2021/09/02 00:22:18;;;;;;;24.43;13.90;;;16.10;98.30;;;;;;4076933;29;20478;-82
2021/09/02 00:24:21;;;;;;;21.20;13.53;;;16.10;98.30;;;;;;4074464;29;20478;-82
2021/09/02 00:26:24;;;;;;;25.43;12.70;;;16.10;98.30;;;;;;4077394;29;20503;-81
2021/09/02 00:28:27;;;;;;;22.70;12.70;;;16.10;98.30;;;;;;4077457;29;20535;-82
2021/09/02 00:30:30;;;;;;;22.23;13.60;;;16.00;98.30;;;;;;4079626;29;20482;-82
2021/09/02 00:32:33;;;;;;;20.73;13.00;;;16.10;98.30;;;;;;4083283;29;20470;-82
2021/09/02 00:34:36;;;;;;;24.33;12.30;;;16.10;98.30;;;;;;4084321;29;20469;-82
2021/09/02 00:36:40;;;;;;;18.57;12.13;;;16.20;98.30;;;;;;4082014;29;21218;-82
2021/09/02 00:38:43;;;;;;;20.73;12.50;;;16.40;98.30;;;;;;4082146;29;20537;-81
2021/09/02 00:40:46;;;;;;;21.77;15.33;;;16.30;98.30;;;;;;4080815;29;20467;-82
2021/09/02 00:42:48;;;;;;;21.57;13.80;;;16.20;98.30;;;;;;4072574;29;20483;-82
2021/09/02 00:44:51;;;;;;;20.40;13.60;;;16.00;98.30;;;;;;4080785;29;20474;-82
2021/09/02 00:46:54;;;;;;;20.40;13.00;;;15.80;98.30;;;;;;4085371;29;20548;-81
2021/09/02 00:48:58;;;;;;;23.43;15.90;;;15.70;98.30;;;;;;4083410;29;20466;-81
2021/09/02 00:51:00;;;;;;;20.10;13.97;;;15.60;98.30;;;;;;4082741;29;20882;-82
2021/09/02 00:53:05;;;;;;;21.80;14.10;;;15.40;98.30;;;;;;4081672;29;20561;-82
2021/09/02 00:55:09;;;;;;;18.90;13.50;;;15.30;98.30;;;;;;4079889;29;20470;-82
2021/09/02 00:57:13;;;;;;;23.00;13.60;;;15.40;98.30;;;;;;4076866;29;20495;-81
2021/09/02 00:59:16;;;;;;;23.40;14.30;;;15.40;98.30;;;;;;4083452;29;20954;-82
2021/09/02 01:01:19;;;;;;;20.40;14.07;;;15.40;98.30;;;;;;4080315;29;20522;-82
2021/09/02 01:03:23;;;;;;;26.70;15.83;;;15.30;98.30;;;;;;4086083;29;20467;-82
2021/09/02 01:05:27;;;;;;;30.77;14.57;;;15.30;98.30;;;;;;4081837;29;20474;-81
2021/09/02 01:07:31;;;;;;;24.13;13.33;;;15.20;98.30;;;;;;4083213;29;20490;-82
2021/09/02 01:09:36;;;;;;;23.17;14.23;;;15.10;98.30;;;;;;4078424;29;20989;-82
2021/09/02 01:11:39;;;;;;;25.70;13.70;;;15.10;98.30;;;;;;4080237;28;20481;-82
2021/09/02 01:13:43;;;;;;;23.63;14.43;;;15.10;98.30;;;;;;4079266;29;21005;-82
2021/09/02 01:15:45;;;;;;;23.93;15.03;;;15.10;98.30;;;;;;4080256;29;20486;-82
2021/09/02 01:17:50;;;;;;;21.50;14.40;;;15.20;98.30;;;;;;4078963;29;20495;-82
2021/09/02 01:19:55;;;;;;;22.97;14.50;;;15.20;98.30;;;;;;4083517;29;21082;-82
2021/09/02 01:21:58;;;;;;;23.37;15.03;;;15.30;98.30;;;;;;4082134;29;20479;-82
2021/09/02 01:24:02;;;;;;;20.37;14.10;;;15.40;98.30;;;;;;4083393;29;20480;-82
2021/09/02 01:26:14;;;;;;;24.43;14.50;;;15.40;98.30;;;;;;4079241;29;20977;-81
2021/09/02 01:28:18;;;;;;;22.17;14.33;;;15.40;98.30;;;;;;4076283;29;20475;-82
2021/09/02 01:30:22;;;;;;;25.73;15.20;;;15.30;98.30;;;;;;4085189;29;20473;-82
2021/09/02 01:32:26;;;;;;;25.17;13.93;;;15.20;98.30;;;;;;4083817;29;20473;-82
2021/09/02 01:34:29;;;;;;;23.57;15.03;;;15.20;98.30;;;;;;4079719;29;20478;-82
2021/09/02 01:36:31;;;;;;;23.20;13.70;;;15.20;98.30;;;;;;4081233;29;20502;-82
2021/09/02 01:38:34;;;;;;;27.33;14.30;;;15.20;98.30;;;;;;4081787;29;20470;-82
2021/09/02 01:40:41;;;;;;;21.70;13.90;;;15.10;98.30;;;;;;4078948;29;20466;-82
2021/09/02 01:42:44;;;;;;;22.87;13.73;;;15.20;98.30;;;;;;4083062;29;20470;-81
2021/09/02 01:44:47;;;;;;;25.67;15.10;;;15.20;98.30;;;;;;4083216;29;20488;-81
2021/09/02 01:46:50;;;;;;;19.90;12.47;;;15.20;98.30;;;;;;4081281;29;21073;-82
2021/09/02 01:48:55;;;;;;;20.50;12.30;;;15.40;98.30;;;;;;4081638;29;20477;-82
2021/09/02 01:50:58;;;;;;;23.00;13.70;;;15.60;98.30;;;;;;4083126;29;20467;-82
2021/09/02 01:53:04;;;;;;;23.77;12.53;;;15.70;98.30;;;;;;4074296;29;20491;-82
2021/09/02 01:55:09;;;;;;;18.80;12.07;;;15.80;98.30;;;;;;4079260;29;20959;-82
2021/09/02 01:57:16;;;;;;;19.17;12.50;;;16.00;98.30;;;;;;4078700;29;20482;-81
2021/09/02 01:59:19;;;;;;;19.60;11.80;;;16.10;98.30;;;;;;4081140;29;21006;-82
2021/09/02 02:01:22;;;;;;;16.90;11.90;;;16.10;98.30;;;;;;4074486;29;20478;-82
2021/09/02 02:03:25;;;;;;;18.27;13.03;;;16.20;98.30;;;;;;4082454;29;20475;-82
2021/09/02 02:05:28;;;;;;;20.00;12.30;;;16.20;98.30;;;;;;4075539;29;20518;-82
2021/09/02 02:07:31;;;;;;;24.60;11.43;;;16.30;98.30;;;;;;4082459;29;20498;-82
2021/09/02 02:09:34;;;;;;;15.40;10.87;;;16.20;98.30;;;;;;4079855;29;20847;-82
2021/09/02 02:11:37;;;;;;;15.97;11.33;;;16.20;98.30;;;;;;4083385;29;20470;-82
2021/09/02 02:13:41;;;;;;;19.60;11.90;;;16.10;98.30;;;;;;4073438;29;20481;-82
2021/09/02 02:15:45;;;;;;;20.77;11.60;;;15.80;98.30;;;;;;4080456;29;20466;-81
2021/09/02 02:17:48;;;;;;;22.03;12.67;;;15.60;98.30;;;;;;4085353;29;20523;-82
2021/09/02 02:19:50;;;;;;;18.53;11.90;;;15.40;98.30;;;;;;4087602;29;20475;-81
2021/09/02 02:21:53;;;;;;;18.63;11.63;;;15.30;98.30;;;;;;4086730;29;20477;-81
2021/09/02 02:23:56;;;;;;;16.87;12.00;;;15.30;98.30;;;;;;4087795;29;20461;-82
2021/09/02 02:25:59;;;;;;;20.60;12.60;;;15.40;98.30;;;;;;4081952;29;20573;-81
2021/09/02 02:28:02;;;;;;;18.60;12.13;;;15.50;98.30;;;;;;4075472;29;20478;-82
2021/09/02 02:30:09;;;;;;;24.30;13.60;;;15.50;98.30;;;;;;4083852;29;20458;-82
2021/09/02 02:32:12;;;;;;;17.37;13.10;;;15.60;98.30;;;;;;4083936;29;20505;-82
2021/09/02 02:34:16;;;;;;;20.57;12.63;;;15.70;98.30;;;;;;4082502;29;20513;-82
2021/09/02 02:36:18;;;;;;;18.97;12.53;;;15.80;98.30;;;;;;4083294;29;20498;-82
2021/09/02 02:38:21;;;;;;;20.97;11.63;;;15.80;98.30;;;;;;4085795;29;20484;-82
2021/09/02 02:40:26;;;;;;;25.77;12.80;;;15.90;98.30;;;;;;4084379;29;20545;-82
2021/09/02 02:42:30;;;;;;;25.30;13.20;;;15.80;98.30;;;;;;4084490;29;21374;-82
2021/09/02 02:44:33;;;;;;;18.93;12.83;;;15.70;98.30;;;;;;4092882;29;20481;-82
2021/09/02 02:46:37;;;;;;;19.30;11.90;;;15.60;98.30;;;;;;4090407;29;20525;-82
2021/09/02 02:48:40;;;;;;;21.50;12.90;;;15.60;98.30;;;;;;4089781;29;20521;-83
2021/09/02 02:50:43;;;;;;;19.50;12.70;;;15.50;98.30;;;;;;4090009;29;20467;-81
2021/09/02 02:52:46;;;;;;;20.87;13.10;;;15.30;98.30;;;;;;4089160;29;20545;-82
2021/09/02 02:54:49;;;;;;;19.10;12.00;;;15.20;98.30;;;;;;4085863;29;20481;-82
2021/09/02 02:56:52;;;;;;;21.70;12.57;;;15.10;98.30;;;;;;4084950;29;20534;-82
2021/09/02 02:58:55;;;;;;;30.60;13.73;;;15.10;98.30;;;;;;4078695;29;20477;-82
2021/09/02 03:00:58;;;;;;;22.83;13.77;;;15.10;98.30;;;;;;4079531;29;20475;-82
2021/09/02 03:03:02;;;;;;;21.03;12.53;;;15.10;98.30;;;;;;4080918;29;20473;-82
2021/09/02 03:05:08;;;;;;;23.33;12.73;;;15.10;98.30;;;;;;4079475;29;20466;-82
2021/09/02 03:07:11;;;;;;;22.67;12.80;;;15.10;98.30;;;;;;4077799;29;20483;-82
2021/09/02 03:09:14;;;;;;;21.63;12.03;;;15.10;98.30;;;;;;4077200;29;20493;-81
2021/09/02 03:11:17;;;;;;;20.17;11.90;;;15.10;98.30;;;;;;4071107;29;20489;-81
2021/09/02 03:13:20;;;;;;;19.70;11.80;;;15.10;98.30;;;;;;4070841;29;20534;-81
2021/09/02 03:15:23;;;;;;;24.70;12.20;;;15.10;98.30;;;;;;4081013;29;20976;-82
2021/09/02 03:17:26;;;;;;;16.20;11.60;;;15.20;98.30;;;;;;4078524;29;20512;-81
2021/09/02 03:19:30;;;;;;;20.40;12.67;;;15.20;98.30;;;;;;4082316;29;20530;-81
2021/09/02 03:21:33;;;;;;;19.30;13.00;;;15.20;98.30;;;;;;4079945;29;20572;-79
2021/09/02 03:23:36;;;;;;;17.90;11.23;;;15.20;98.30;;;;;;4079161;29;20495;-80
2021/09/02 03:25:39;;;;;;;33.70;22.90;;;15.30;98.30;;;;;;4079418;29;20474;-79
2021/09/02 03:27:42;;;;;;;35.07;21.37;;;15.50;98.30;;;;;;4075915;29;20491;-80
2021/09/02 03:29:45;;;;;;;39.90;24.33;;;15.60;98.30;;;;;;4080734;29;20824;-80
2021/09/02 03:31:48;;;;;;;22.90;13.73;;;15.70;98.30;;;;;;4081289;29;20520;-80
2021/09/02 03:33:51;;;;;;;18.10;12.27;;;15.90;98.30;;;;;;4071638;29;21059;-80
2021/09/02 03:35:55;;;;;;;21.27;12.87;;;15.80;98.30;;;;;;4071398;29;20485;-80
2021/09/02 03:37:58;;;;;;;17.87;11.80;;;15.80;98.30;;;;;;4068324;29;20495;-79
2021/09/02 03:40:00;;;;;;;20.93;13.80;;;15.70;98.30;;;;;;4078677;29;20884;-80
2021/09/02 03:42:04;;;;;;;20.03;14.30;;;15.70;98.30;;;;;;4073261;29;20467;-80
2021/09/02 03:44:07;;;;;;;19.10;12.57;;;15.80;98.30;;;;;;4082284;29;20470;-79
2021/09/02 03:46:09;;;;;;;19.93;13.50;;;15.70;98.30;;;;;;4076300;29;20486;-79
2021/09/02 03:48:12;;;;;;;22.80;13.83;;;15.70;98.30;;;;;;4073804;29;20466;-79
2021/09/02 03:50:16;;;;;;;21.70;12.90;;;15.70;98.30;;;;;;4073428;29;20504;-80
2021/09/02 03:52:20;;;;;;;17.30;11.27;;;15.70;98.30;;;;;;4076004;29;20581;-80
2021/09/02 03:54:23;;;;;;;21.57;13.13;;;15.80;98.30;;;;;;4078496;29;20558;-80
2021/09/02 03:56:26;;;;;;;18.67;12.73;;;15.80;98.30;;;;;;4078240;29;20489;-80
2021/09/02 03:58:29;;;;;;;17.40;12.00;;;15.80;98.30;;;;;;4076733;29;20508;-79
2021/09/02 04:00:32;;;;;;;18.77;12.03;;;15.90;98.30;;;;;;4079947;29;20481;-80
2021/09/02 04:02:35;;;;;;;29.37;14.00;;;16.00;98.30;;;;;;4077862;29;20479;-81
2021/09/02 04:04:38;;;;;;;20.83;13.00;;;16.00;98.30;;;;;;4079753;29;20470;-81
2021/09/02 04:06:41;;;;;;;24.27;15.67;;;16.00;98.30;;;;;;4081989;29;21073;-81
2021/09/02 04:08:46;;;;;;;30.83;16.17;;;15.90;98.30;;;;;;4083876;29;20466;-81
2021/09/02 04:10:49;;;;;;;37.50;19.83;;;15.90;98.30;;;;;;4080619;29;20977;-80
2021/09/02 04:12:52;;;;;;;23.00;13.83;;;15.90;98.30;;;;;;4081581;29;20897;-81
2021/09/02 04:14:55;;;;;;;26.60;16.43;;;15.90;98.30;;;;;;4075456;29;20470;-80
2021/09/02 04:16:58;;;;;;;27.30;16.13;;;15.90;98.30;;;;;;4083337;29;20497;-80
2021/09/02 04:19:00;;;;;;;21.53;12.87;;;16.10;98.30;;;;;;4075487;29;20494;-81
2021/09/02 04:21:04;;;;;;;22.23;14.63;;;16.10;98.30;;;;;;4084378;29;20958;-81
2021/09/02 04:23:07;;;;;;;26.33;15.17;;;16.10;98.30;;;;;;4085695;29;20477;-81
2021/09/02 04:25:12;;;;;;;24.10;16.10;;;16.20;98.30;;;;;;4072839;29;21212;-81
2021/09/02 04:27:16;;;;;;;90.43;54.67;;;16.30;98.30;;;;;;4078071;29;20900;-80
2021/09/02 04:29:19;;;;;;;41.70;25.80;;;16.40;98.30;;;;;;4082278;29;20477;-81
2021/09/02 04:31:23;;;;;;;44.07;27.13;;;16.50;98.30;;;;;;4080867;29;20474;-81
2021/09/02 04:33:26;;;;;;;30.77;19.17;;;16.60;98.30;;;;;;4080002;29;20490;-81
2021/09/02 04:35:29;;;;;;;27.33;17.00;;;16.70;98.30;;;;;;4084259;29;20477;-81
2021/09/02 04:37:36;;;;;;;40.67;27.43;;;16.70;98.30;;;;;;4080656;29;20487;-81
2021/09/02 04:39:41;;;;;;;58.17;35.07;;;16.80;98.30;;;;;;4082101;29;20470;-83
2021/09/02 04:42:10;;;;;;;42.63;24.87;;;16.80;98.30;;;;;;4079695;29;20474;-83
2021/09/02 04:44:33;;;;;;;21.30;13.37;;;16.90;98.30;;;;;;4084236;29;21108;-83
2021/09/02 04:46:39;;;;;;;22.47;12.53;;;16.70;98.30;;;;;;4082164;29;20893;-84
2021/09/02 04:48:51;;;;;;;24.73;11.60;;;16.70;98.30;;;;;;4075821;29;20522;-84
2021/09/02 04:50:55;;;;;;;16.40;11.17;;;16.70;98.30;;;;;;4077543;29;20561;-83
2021/09/02 04:52:59;;;;;;;15.83;10.40;;;16.70;98.30;;;;;;4075655;29;20538;-83
2021/09/02 04:55:03;;;;;;;16.43;11.40;;;16.70;98.30;;;;;;4080205;29;20965;-83
2021/09/02 04:57:08;;;;;;;19.23;11.27;;;16.50;98.30;;;;;;4082085;29;20485;-82
2021/09/02 04:59:11;;;;;;;16.73;10.50;;;16.50;98.30;;;;;;4070389;29;20501;-82
2021/09/02 05:01:14;;;;;;;18.77;11.87;;;16.50;98.30;;;;;;4075861;29;20470;-82
2021/09/02 05:03:17;;;;;;;20.60;11.53;;;16.60;98.30;;;;;;4071026;29;20469;-82
2021/09/02 05:05:21;;;;;;;20.73;11.07;;;16.60;98.30;;;;;;4078928;29;20481;-83
2021/09/02 05:07:24;;;;;;;23.57;11.37;;;16.70;98.30;;;;;;4080183;29;20497;-83
2021/09/02 05:09:27;;;;;;;15.13;10.60;;;16.80;98.30;;;;;;4070432;29;20515;-83
2021/09/02 05:11:48;;;;;;;20.10;11.20;;;16.80;98.30;;;;;;4082065;29;21276;-83
2021/09/02 05:13:53;;;;;;;15.67;10.80;;;16.90;98.30;;;;;;4069980;29;20928;-83
2021/09/02 05:15:56;;;;;;;21.60;11.00;;;16.80;98.30;;;;;;4069925;29;20566;-82
2021/09/02 05:17:59;;;;;;;18.17;11.30;;;16.70;98.30;;;;;;4069782;29;20530;-82
2021/09/02 05:20:02;;;;;;;15.43;10.90;;;16.70;98.30;;;;;;4070125;29;20471;-82
2021/09/02 05:22:05;;;;;;;15.83;10.73;;;16.70;98.30;;;;;;4073263;29;20483;-83
2021/09/02 05:24:08;;;;;;;16.93;10.03;;;16.80;98.30;;;;;;4070138;29;20503;-83
2021/09/02 05:26:11;;;;;;;16.30;11.53;;;16.90;98.30;;;;;;4077611;29;21007;-82
2021/09/02 05:28:14;;;;;;;17.23;12.70;;;16.80;98.30;;;;;;4069800;29;20530;-82
2021/09/02 05:30:18;;;;;;;23.10;12.07;;;16.60;98.30;;;;;;4070880;29;20505;-82
2021/09/02 05:32:22;;;;;;;15.83;10.80;;;16.70;98.30;;;;;;4069549;29;20582;-83
2021/09/02 05:34:24;;;;;;;18.57;12.13;;;16.80;98.30;;;;;;4069396;29;20483;-82
2021/09/02 05:36:27;;;;;;;19.90;11.33;;;16.70;98.30;;;;;;4073856;29;20494;-83
2021/09/02 05:38:30;;;;;;;16.17;9.77;;;16.70;98.30;;;;;;4079433;29;20593;-82
2021/09/02 05:40:33;;;;;;;18.03;10.60;;;16.70;98.30;;;;;;4069624;29;20566;-83
2021/09/02 05:42:36;;;;;;;13.87;9.80;;;16.70;98.30;;;;;;4069662;29;20475;-82
2021/09/02 05:44:39;;;;;;;17.53;12.03;;;16.70;98.30;;;;;;4069021;29;21087;-83
2021/09/02 05:46:44;;;;;;;18.27;11.27;;;16.70;98.30;;;;;;4069503;29;20503;-82
2021/09/02 05:48:47;;;;;;;18.40;10.90;;;16.70;98.30;;;;;;4069582;29;21115;-83
2021/09/02 05:50:52;;;;;;;22.10;11.60;;;16.80;98.30;;;;;;4069293;29;20485;-83
2021/09/02 05:52:55;;;;;;;20.77;11.70;;;16.80;98.30;;;;;;4075862;29;20557;-82
2021/09/02 05:54:58;;;;;;;16.27;10.97;;;16.80;98.30;;;;;;4068945;29;20553;-82
2021/09/02 05:57:01;;;;;;;22.43;10.47;;;16.80;98.30;;;;;;4069590;29;21010;-82
2021/09/02 05:59:04;;;;;;;20.40;12.90;;;16.80;98.30;;;;;;4069486;29;20501;-82
2021/09/02 06:01:07;;;;;;;17.87;11.30;;;16.80;98.30;;;;;;4069186;29;20847;-82
2021/09/02 06:03:12;;;;;;;20.43;11.13;;;16.80;98.30;;;;;;4073292;29;20467;-83
2021/09/02 06:05:15;;;;;;;17.97;10.87;;;16.90;98.30;;;;;;4076588;29;20572;-82
2021/09/02 06:07:18;;;;;;;16.90;11.37;;;16.90;98.30;;;;;;4072537;29;20498;-82
2021/09/02 06:09:21;;;;;;;16.57;10.73;;;17.00;98.30;;;;;;4074724;29;20970;-82
2021/09/02 06:11:24;;;;;;;19.17;12.07;;;17.10;98.30;;;;;;4081312;29;20473;-82
2021/09/02 06:13:27;;;;;;;16.00;10.50;;;17.10;98.30;;;;;;4077260;29;20994;-83
2021/09/02 06:15:30;;;;;;;16.90;11.13;;;17.10;98.30;;;;;;4084172;29;20564;-82
2021/09/02 06:17:33;;;;;;;15.60;10.80;;;17.20;98.30;;;;;;4080453;29;20578;-82
2021/09/02 06:19:38;;;;;;;20.93;11.30;;;17.20;98.30;;;;;;4069897;29;20490;-82
2021/09/02 06:21:41;;;;;;;19.83;11.47;;;17.20;98.30;;;;;;4069122;29;20475;-83
2021/09/02 06:23:44;;;;;;;18.70;12.17;;;17.10;98.30;;;;;;4068434;29;20475;-82
2021/09/02 06:25:47;;;;;;;18.87;10.07;;;17.20;98.30;;;;;;4068897;29;20475;-82
2021/09/02 06:27:50;;;;;;;18.40;11.80;;;17.20;98.30;;;;;;4075070;29;20865;-82
2021/09/02 06:29:53;;;;;;;18.23;11.10;;;17.20;98.30;;;;;;4077001;29;21035;-83
2021/09/02 06:31:56;;;;;;;17.43;10.77;;;17.20;98.30;;;;;;4073992;29;20501;-82
2021/09/02 06:33:59;;;;;;;18.63;11.00;;;17.20;98.30;;;;;;4075787;29;20849;-82
2021/09/02 06:36:03;;;;;;;22.60;13.17;;;17.20;98.30;;;;;;4083244;29;20557;-82
2021/09/02 06:38:07;;;;;;;14.90;10.87;;;17.20;98.30;;;;;;4074373;29;20483;-82
2021/09/02 06:40:11;;;;;;;20.70;12.40;;;17.20;98.30;;;;;;4080484;29;20490;-82
2021/09/02 06:42:14;;;;;;;17.57;10.87;;;17.20;98.30;;;;;;4079125;29;20483;-82
2021/09/02 06:44:17;;;;;;;19.07;12.70;;;17.20;98.30;;;;;;4068594;29;20562;-83
2021/09/02 06:46:20;;;;;;;19.23;12.20;;;17.30;98.30;;;;;;4069076;29;20497;-82
2021/09/02 06:48:23;;;;;;;18.00;12.20;;;17.40;98.30;;;;;;4069010;29;20481;-82
2021/09/02 06:50:26;;;;;;;18.40;12.70;;;17.40;98.30;;;;;;4076957;29;20481;-83
2021/09/02 06:52:31;;;;;;;17.60;11.70;;;17.40;98.30;;;;;;4077914;29;20481;-82
2021/09/02 06:54:34;;;;;;;18.73;12.23;;;17.40;98.30;;;;;;4077795;29;20521;-82
2021/09/02 06:56:37;;;;;;;16.60;11.97;;;17.40;98.30;;;;;;4073828;29;21221;-82
2021/09/02 06:58:40;;;;;;;21.67;11.83;;;17.50;98.30;;;;;;4087921;29;20496;-83
2021/09/02 07:00:43;;;;;;;15.90;11.60;;;17.50;98.30;;;;;;4093029;29;20542;-83
2021/09/02 07:02:50;;;;;;;21.57;13.20;;;17.50;98.30;;;;;;4093200;29;20466;-83
2021/09/02 07:04:53;;;;;;;22.07;13.70;;;17.50;98.30;;;;;;4085710;29;20464;-83
2021/09/02 07:06:56;;;;;;;18.03;11.30;;;17.50;98.30;;;;;;4093386;29;20497;-83
2021/09/02 07:09:00;;;;;;;22.37;12.30;;;17.40;98.30;;;;;;4085476;29;20958;-83
2021/09/02 07:11:03;;;;;;;21.60;12.20;;;17.50;98.30;;;;;;4093141;29;20477;-83
2021/09/02 07:13:06;;;;;;;19.73;11.07;;;17.50;98.30;;;;;;4077028;29;20486;-83
2021/09/02 07:15:10;;;;;;;18.70;10.97;;;17.60;98.30;;;;;;4068695;29;20499;-83
2021/09/02 07:17:13;;;;;;;16.33;11.20;;;17.60;98.30;;;;;;4069162;29;20486;-82
2021/09/02 07:19:16;;;;;;;16.43;11.57;;;17.60;98.30;;;;;;4077916;29;20928;-83
2021/09/02 07:21:19;;;;;;;18.43;11.37;;;17.70;98.30;;;;;;4069072;29;20562;-82
2021/09/02 07:23:22;;;;;;;14.57;10.73;;;17.80;98.30;;;;;;4078697;29;20478;-82
2021/09/02 07:25:26;;;;;;;16.93;11.00;;;17.70;98.30;;;;;;4068457;29;20514;-83
2021/09/02 07:27:29;;;;;;;16.50;10.73;;;17.80;98.30;;;;;;4068803;29;20498;-82
2021/09/02 07:29:32;;;;;;;19.70;11.57;;;17.80;98.30;;;;;;4075208;29;20561;-82
2021/09/02 07:31:36;;;;;;;15.93;11.60;;;17.80;98.30;;;;;;4077405;29;20510;-83
2021/09/02 07:33:39;;;;;;;24.63;11.70;;;17.80;98.30;;;;;;4075129;29;20481;-82
2021/09/02 07:35:42;;;;;;;15.47;9.80;;;17.90;98.30;;;;;;4073338;29;21023;-83
2021/09/02 07:37:45;;;;;;;18.53;12.00;;;17.90;98.30;;;;;;4068673;29;20530;-82
2021/09/02 07:39:48;;;;;;;16.90;10.80;;;17.90;98.30;;;;;;4068632;29;20978;-82
2021/09/02 07:41:52;;;;;;;18.43;12.07;;;17.90;98.30;;;;;;4068527;29;20473;-82
2021/09/02 07:43:55;;;;;;;16.23;10.93;;;17.90;98.30;;;;;;4068402;29;21363;-83
2021/09/02 07:45:58;;;;;;;18.93;12.20;;;18.00;98.30;;;;;;4071673;29;20477;-83
2021/09/02 07:48:02;;;;;;;23.67;11.57;;;17.90;98.30;;;;;;4075843;29;20513;-82
2021/09/02 07:50:06;;;;;;;21.77;12.50;;;17.90;98.30;;;;;;4068765;29;20466;-83
2021/09/02 07:52:10;;;;;;;17.23;10.53;;;18.00;98.30;;;;;;4073238;29;20517;-82
2021/09/02 07:54:13;;;;;;;13.60;10.50;;;18.00;98.30;;;;;;4074172;29;20508;-83
2021/09/02 07:56:16;;;;;;;18.03;9.83;;;18.00;98.30;;;;;;4067948;29;20503;-82
2021/09/02 07:58:20;;;;;;;17.07;10.10;;;18.00;98.30;;;;;;4068401;29;20589;-82
2021/09/02 08:00:23;;;;;;;18.87;9.23;;;18.00;98.30;;;;;;4072584;29;20522;-82
2021/09/02 08:02:26;;;;;;;18.37;10.40;;;18.00;98.30;;;;;;4080080;29;20950;-83
2021/09/02 08:04:30;;;;;;;14.83;11.50;;;18.00;98.30;;;;;;4075113;29;20576;-82
2021/09/02 08:06:33;;;;;;;15.83;10.53;;;18.10;98.30;;;;;;4071198;29;20627;-83
2021/09/02 08:08:36;;;;;;;19.13;9.97;;;18.20;98.30;;;;;;4080851;29;20594;-82
2021/09/02 08:10:39;;;;;;;20.17;10.23;;;18.20;98.30;;;;;;4078132;29;20553;-82
2021/09/02 08:12:42;;;;;;;16.43;9.80;;;18.20;98.30;;;;;;4076580;29;20478;-82
2021/09/02 08:14:46;;;;;;;20.00;9.70;;;18.30;98.30;;;;;;4074424;29;20479;-82
2021/09/02 08:16:49;;;;;;;13.67;9.17;;;18.40;98.30;;;;;;4076425;29;20584;-82
2021/09/02 08:18:52;;;;;;;17.37;11.13;;;18.30;98.30;;;;;;4080897;29;20585;-82
2021/09/02 08:20:55;;;;;;;17.40;10.73;;;18.30;98.30;;;;;;4074110;29;20505;-82
2021/09/02 08:22:58;;;;;;;16.67;9.60;;;18.40;98.30;;;;;;4078243;29;20961;-82
2021/09/02 08:25:01;;;;;;;14.10;10.00;;;18.50;98.30;;;;;;4067863;29;20848;-82
2021/09/02 08:27:04;;;;;;;21.50;10.40;;;18.40;98.30;;;;;;4068064;29;20490;-82
2021/09/02 08:29:07;;;;;;;15.03;10.33;;;18.50;98.30;;;;;;4067897;29;20927;-82
2021/09/02 08:31:11;;;;;;;13.83;10.10;;;18.60;98.30;;;;;;4075369;29;20511;-82
2021/09/02 08:33:15;;;;;;;12.13;9.77;;;18.60;98.30;;;;;;4067258;29;20471;-83
2021/09/02 08:35:22;;;;;;;16.70;9.07;;;18.50;98.30;;;;;;4073045;29;20586;-83
2021/09/02 08:37:25;;;;;;;14.67;10.13;;;18.50;98.30;;;;;;4073536;29;20923;-83
2021/09/02 08:39:28;;;;;;;17.80;10.07;;;18.50;98.30;;;;;;4074916;29;20498;-83
2021/09/02 08:41:34;;;;;;;16.90;10.77;;;18.50;98.30;;;;;;4073648;29;20545;-83
2021/09/02 08:43:37;;;;;;;11.90;8.67;;;18.50;98.30;;;;;;4068911;29;20562;-83
2021/09/02 08:46:00;;;;;;;13.80;9.00;;;18.50;98.30;;;;;;4071101;29;20469;-83
2021/09/02 08:48:05;;;;;;;12.93;8.00;;;18.50;98.30;;;;;;4076883;29;20485;-83
2021/09/02 08:50:10;;;;;;;13.10;8.40;;;18.50;98.30;;;;;;4075178;29;20502;-83
2021/09/02 08:52:13;;;;;;;14.43;8.70;;;18.40;98.30;;;;;;4075210;29;20482;-83
2021/09/02 08:54:16;;;;;;;17.43;8.90;;;18.50;98.30;;;;;;4078022;29;20569;-83
2021/09/02 08:56:19;;;;;;;16.80;10.23;;;18.50;98.30;;;;;;4080369;29;20519;-83
2021/09/02 08:58:22;;;;;;;14.33;9.43;;;18.60;98.30;;;;;;4084762;29;20482;-83
2021/09/02 09:00:26;;;;;;;15.17;10.47;;;18.70;98.30;;;;;;4078667;29;20557;-82
2021/09/02 09:02:31;;;;;;;11.90;8.97;;;18.70;98.30;;;;;;4079492;29;20470;-82
2021/09/02 09:04:36;;;;;;;13.70;9.00;;;18.70;98.30;;;;;;4075604;29;20510;-82
2021/09/02 09:06:39;;;;;;;15.07;9.00;;;18.80;98.30;;;;;;4081816;29;21048;-82
2021/09/02 09:08:44;;;;;;;12.37;8.33;;;18.80;98.30;;;;;;4069774;29;20561;-83
2021/09/02 09:10:48;;;;;;;12.03;7.70;;;18.80;98.30;;;;;;4070306;29;20502;-82
2021/09/02 09:12:53;;;;;;;10.60;7.70;;;18.80;98.30;;;;;;4078768;29;21037;-82
2021/09/02 09:14:57;;;;;;;16.10;9.30;;;18.70;98.30;;;;;;4076278;29;20470;-83
2021/09/02 09:17:00;;;;;;;11.47;8.60;;;18.70;98.30;;;;;;4069869;29;20494;-82
2021/09/02 09:19:03;;;;;;;16.50;8.90;;;18.80;98.30;;;;;;4073809;29;20475;-83
2021/09/02 09:21:09;;;;;;;13.43;8.67;;;18.80;98.30;;;;;;4069966;29;20506;-82
2021/09/02 09:23:12;;;;;;;15.83;11.13;;;18.80;98.30;;;;;;4072452;29;20474;-82
2021/09/02 09:25:15;;;;;;;13.13;8.33;;;18.70;98.30;;;;;;4074706;29;20474;-83
2021/09/02 09:27:20;;;;;;;11.33;8.40;;;18.80;98.30;;;;;;4080096;29;20581;-83
2021/09/02 09:29:23;;;;;;;15.50;8.23;;;18.70;98.30;;;;;;4077066;29;20470;-83
2021/09/02 09:31:28;;;;;;;12.77;7.90;;;18.70;98.30;;;;;;4074291;29;20542;-82
2021/09/02 09:33:31;;;;;;;10.20;8.53;;;18.70;98.30;;;;;;4069437;29;20485;-82
2021/09/02 09:35:36;;;;;;;13.70;7.77;;;18.70;98.30;;;;;;4069480;29;20483;-83
2021/09/02 09:37:40;;;;;;;14.47;8.23;;;18.70;98.30;;;;;;4069695;29;20514;-82
2021/09/02 09:39:44;;;;;;;11.63;8.27;;;18.60;98.30;;;;;;4076951;29;20551;-82
2021/09/02 09:41:49;;;;;;;15.57;9.57;;;18.80;98.30;;;;;;4069376;29;20499;-82
2021/09/02 09:44:20;;;;;;;15.97;11.73;;;18.70;98.30;;;;;;4069052;29;20493;-83
2021/09/02 09:46:23;;;;;;;46.87;29.70;;;18.70;98.30;;;;;;4078558;29;20895;-82
2021/09/02 09:48:38;;;;;;;74.60;51.23;;;18.70;98.30;;;;;;4080640;29;20485;-83
2021/09/02 09:50:41;;;;;;;22.27;15.33;;;18.80;98.30;;;;;;4069653;29;20570;-83
2021/09/02 09:52:45;;;;;;;17.20;10.07;;;18.80;98.30;;;;;;4069114;29;20487;-82
2021/09/02 09:54:49;;;;;;;15.47;10.03;;;18.80;98.30;;;;;;4073835;29;20561;-83
2021/09/02 09:56:52;;;;;;;22.57;12.83;;;18.80;98.30;;;;;;4069490;29;20502;-82
2021/09/02 09:58:56;;;;;;;28.57;18.73;;;18.70;98.30;;;;;;4068839;29;20475;-82
2021/09/02 10:01:01;;;;;;;41.17;26.23;;;18.80;98.30;;;;;;4074978;29;20598;-82
2021/09/02 10:03:04;;;;;;;24.67;16.40;;;18.80;98.30;;;;;;4083056;29;20466;-82
2021/09/02 10:05:10;;;;;;;13.30;9.20;;;18.70;98.30;;;;;;4080477;29;20501;-83
2021/09/02 10:07:16;;;;;;;12.33;8.50;;;18.70;98.30;;;;;;4075908;29;20526;-83
2021/09/02 10:09:20;;;;;;;13.47;8.57;;;18.60;98.30;;;;;;4069257;29;20489;-83
2021/09/02 10:11:24;;;;;;;17.67;9.10;;;18.50;98.30;;;;;;4068601;29;20847;-83
2021/09/02 10:13:28;;;;;;;18.50;8.33;;;18.60;98.30;;;;;;4068893;29;20495;-82
2021/09/02 10:15:31;;;;;;;144.00;88.57;;;18.70;98.30;;;;;;4076592;29;20486;-83
2021/09/02 10:17:36;;;;;;;47.33;29.27;;;18.80;98.30;;;;;;4068954;29;20483;-83
2021/09/02 10:19:39;;;;;;;21.07;11.93;;;18.80;98.30;;;;;;4074029;29;20501;-82
2021/09/02 10:21:43;;;;;;;17.67;10.20;;;18.80;98.30;;;;;;4077710;29;20501;-82
2021/09/02 10:23:47;;;;;;;16.67;9.77;;;18.70;98.30;;;;;;4073789;29;20485;-82
2021/09/02 10:25:52;;;;;;;14.63;10.00;;;18.80;98.30;;;;;;4075839;29;20594;-83
2021/09/02 10:27:59;;;;;;;15.93;9.40;;;18.70;98.30;;;;;;4075665;29;20560;-83
2021/09/02 10:30:22;;;;;;;15.17;9.07;;;18.70;98.30;;;;;;4070389;29;20561;-82